Time;durP1;ratioP1;P1;durP2;ratioP2;P2;SDS_P1;SDS_P2;PMS_P1;PMS_P2;Temp;Humidity;BMP_temperature;BMP_pressure;BME280_temperature;BME280_humidity;BME280_pressure;Samples;Min_cycle;Max_cycle;Signal;HPM_P1;HPM_P2
2023/12/08 00:01:35;;;;;;;54.40;26.12;;;;;;;-3.42;89.81;100931.30;1744473;82;27194;-52
2023/12/08 00:04:02;;;;;;;60.45;27.62;;;;;;;-3.45;89.93;100931.69;1744436;82;25725;-52
2023/12/08 00:06:29;;;;;;;53.42;26.70;;;;;;;-3.45;90.23;100936.46;1744512;82;25519;-51
2023/12/08 00:08:56;;;;;;;57.55;26.40;;;;;;;-3.46;90.29;100940.11;1744467;82;25623;-51
2023/12/08 00:11:23;;;;;;;57.00;25.80;;;;;;;-3.47;90.36;100940.34;1744485;82;25378;-50
2023/12/08 00:13:49;;;;;;;54.33;26.95;;;;;;;-3.48;90.48;100935.53;1744517;82;27948;-53
2023/12/08 00:16:16;;;;;;;52.48;25.40;;;;;;;-3.47;90.66;100939.83;1744408;82;25520;-55
2023/12/08 00:18:43;;;;;;;53.20;26.68;;;;;;;-3.47;90.53;100940.34;1744565;82;25473;-53
2023/12/08 00:21:11;;;;;;;61.23;27.05;;;;;;;-3.47;90.67;100934.53;1744448;82;26194;-53
2023/12/08 00:23:38;;;;;;;58.10;26.45;;;;;;;-3.50;90.46;100932.28;1744473;82;25579;-55
2023/12/08 00:26:06;;;;;;;82.20;41.45;;;;;;;-3.53;90.55;100927.91;1744459;82;27999;-55
2023/12/08 00:28:34;;;;;;;72.45;35.15;;;;;;;-3.54;90.68;100927.09;1744393;82;25628;-52
2023/12/08 00:31:00;;;;;;;56.75;28.32;;;;;;;-3.50;91.25;100922.22;1744514;82;25434;-54
2023/12/08 00:33:27;;;;;;;59.80;26.10;;;;;;;-3.50;90.98;100923.02;1744433;82;26393;-52
2023/12/08 00:35:54;;;;;;;59.13;27.42;;;;;;;-3.53;90.80;100920.77;1766130;80;25952;-51
2023/12/08 00:38:21;;;;;;;57.48;26.45;;;;;;;-3.57;90.71;100921.69;1782132;80;27978;-54
2023/12/08 00:40:50;;;;;;;53.58;25.75;;;;;;;-3.58;90.84;100913.43;1781999;80;25655;-54
2023/12/08 00:43:16;;;;;;;55.55;25.88;;;;;;;-3.57;90.98;100909.78;1782226;80;25406;-54
2023/12/08 00:45:43;;;;;;;55.45;26.05;;;;;;;-3.58;91.02;100913.43;1782066;80;26390;-52
2023/12/08 00:48:11;;;;;;;57.75;27.60;;;;;;;-3.60;90.98;100912.82;1782154;80;25414;-52
2023/12/08 00:50:38;;;;;;;55.08;26.97;;;;;;;-3.60;91.14;100910.17;1729534;83;28020;-55
2023/12/08 00:53:05;;;;;;;59.13;27.00;;;;;;;-3.63;91.03;100908.44;1722121;83;25635;-54
2023/12/08 00:55:32;;;;;;;52.55;25.02;;;;;;;-3.64;91.03;100918.22;1729208;83;25502;-53
2023/12/08 00:57:58;;;;;;;54.75;26.90;;;;;;;-3.61;91.30;100915.17;1729464;82;25622;-53
2023/12/08 01:00:25;;;;;;;57.23;25.48;;;;;;;-3.60;91.28;100912.82;1698855;83;25620;-51
2023/12/08 01:02:52;;;;;;;58.40;27.75;;;;;;;-3.61;91.17;100915.17;1722236;83;27675;-52
2023/12/08 01:05:19;;;;;;;57.88;27.95;;;;;;;-3.58;91.31;100912.11;1720205;83;25499;-55
2023/12/08 01:07:46;;;;;;;57.03;26.40;;;;;;;-3.55;91.34;100914.07;1698851;84;25634;-52
2023/12/08 01:10:12;;;;;;;56.05;25.10;;;;;;;-3.52;91.41;100908.35;1722203;83;25972;-52
2023/12/08 01:12:39;;;;;;;52.90;24.63;;;;;;;-3.52;91.36;100907.87;1729531;82;25538;-53
2023/12/08 01:15:08;;;;;;;52.13;25.70;;;;;;;-3.52;91.23;100891.16;1729442;83;28328;-52
2023/12/08 01:17:36;;;;;;;59.30;27.32;;;;;;;-3.54;91.05;100899.33;1722311;83;25570;-52
2023/12/08 01:20:07;;;;;;;56.42;25.82;;;;;;;-3.56;91.07;100898.69;1698853;84;25505;-52
2023/12/08 01:22:34;;;;;;;55.73;26.48;;;;;;;-3.56;91.17;100897.36;1695947;84;26496;-53
2023/12/08 01:25:02;;;;;;;58.10;27.80;;;;;;;-3.60;91.13;100898.27;1722237;83;25467;-52
2023/12/08 01:27:29;;;;;;;69.03;33.83;;;;;;;-3.60;91.09;100900.11;1729521;82;27340;-54
2023/12/08 01:29:55;;;;;;;66.77;30.43;;;;;;;-3.61;91.22;100913.86;1729419;83;25909;-55
2023/12/08 01:32:22;;;;;;;75.25;35.00;;;;;;;-3.58;91.63;100919.23;1722219;83;25634;-53
2023/12/08 01:34:49;;;;;;;76.30;36.20;;;;;;;-3.55;91.63;100937.36;1728857;82;26738;-51
2023/12/08 01:37:16;;;;;;;62.13;27.65;;;;;;;-3.52;91.64;100938.77;1719213;83;25580;-56
2023/12/08 01:39:43;;;;;;;55.17;25.95;;;;;;;-3.47;91.66;100936.38;1727202;83;27506;-51
2023/12/08 01:42:10;;;;;;;60.33;28.27;;;;;;;-3.48;91.28;100933.41;1760579;80;25425;-51
2023/12/08 01:44:38;;;;;;;57.83;26.68;;;;;;;-3.48;91.12;100926.80;1760657;81;25521;-53
2023/12/08 01:47:06;;;;;;;56.10;25.70;;;;;;;-3.49;90.96;100917.22;1760607;81;25630;-51
2023/12/08 01:49:34;;;;;;;57.10;27.98;;;;;;;-3.52;90.93;100909.67;1760816;81;25599;-52
2023/12/08 01:52:02;;;;;;;53.02;24.32;;;;;;;-3.54;90.93;100903.30;1760636;81;28023;-55
2023/12/08 01:54:30;;;;;;;61.13;25.37;;;;;;;-3.55;90.91;100908.78;1760534;81;25440;-52
2023/12/08 01:56:58;;;;;;;54.45;24.18;;;;;;;-3.58;90.96;100908.14;1760604;81;25731;-53
2023/12/08 01:59:25;;;;;;;55.50;26.73;;;;;;;-3.60;90.97;100910.69;1760616;81;25598;-50
2023/12/08 02:01:52;;;;;;;58.58;26.12;;;;;;;-3.61;91.04;100915.66;1759864;81;25366;-49
2023/12/08 02:04:19;;;;;;;57.85;27.13;;;;;;;-3.67;90.90;100918.61;1759484;81;27341;-49
2023/12/08 02:06:47;;;;;;;53.15;24.92;;;;;;;-3.70;90.99;100918.20;1760186;81;25654;-50
2023/12/08 02:09:13;;;;;;;53.05;24.77;;;;;;;-3.68;91.13;100918.80;1760620;81;25397;-49
2023/12/08 02:11:41;;;;;;;60.73;26.65;;;;;;;-3.69;91.17;100916.67;1760546;81;25533;-49
2023/12/08 02:14:13;;;;;;;57.80;26.75;;;;;;;-3.66;91.39;100915.45;1760666;81;25461;-50
2023/12/08 02:16:45;;;;;;;60.52;27.20;;;;;;;-3.66;91.37;100911.48;1759894;81;27403;-49
2023/12/08 02:19:14;;;;;;;57.30;25.08;;;;;;;-3.64;91.41;100910.80;1760541;81;25460;-50
2023/12/08 02:21:42;;;;;;;37.93;16.77;;;;;;;-3.65;91.36;100910.48;1760884;81;25468;-50
2023/12/08 02:24:09;;;;;;;57.10;25.32;;;;;;;-3.66;91.32;100909.67;1725683;81;25960;-51
2023/12/08 02:26:37;;;;;;;52.48;24.67;;;;;;;-3.67;91.25;100898.77;1760631;81;25441;-50
2023/12/08 02:29:09;;;;;;;55.67;25.30;;;;;;;-3.70;91.14;100879.86;1760643;81;27329;-49
2023/12/08 02:31:44;;;;;;;51.63;25.52;;;;;;;-3.71;91.11;100886.98;1760565;81;25611;-50
2023/12/08 02:34:16;;;;;;;50.40;24.20;;;;;;;-3.74;91.12;100891.34;1760614;81;25541;-50
2023/12/08 02:36:46;;;;;;;51.73;23.98;;;;;;;-3.76;91.18;100894.70;1732896;80;25842;-49
2023/12/08 02:39:16;;;;;;;56.00;26.25;;;;;;;-3.77;91.35;100895.19;1749067;80;25606;-49
2023/12/08 02:41:44;;;;;;;46.28;23.15;;;;;;;-3.77;91.42;100896.50;1749183;80;28072;-50
2023/12/08 02:44:11;;;;;;;52.67;25.62;;;;;;;-3.79;91.40;100894.58;1779831;80;25363;-51
2023/12/08 02:46:40;;;;;;;53.15;24.30;;;;;;;-3.78;91.52;100896.22;1727284;83;25594;-51
2023/12/08 02:49:07;;;;;;;53.95;24.40;;;;;;;-3.77;91.47;100902.30;1696767;83;26308;-49
2023/12/08 02:51:34;;;;;;;51.75;23.98;;;;;;;-3.78;91.54;100901.50;1730349;82;25449;-51
2023/12/08 02:54:01;;;;;;;50.35;24.27;;;;;;;-3.76;91.58;100897.34;1727207;83;27791;-49
2023/12/08 02:56:28;;;;;;;50.33;23.87;;;;;;;-3.76;91.48;100896.02;1727088;83;25644;-50
2023/12/08 02:58:55;;;;;;;53.00;24.02;;;;;;;-3.76;91.49;100893.38;1730327;82;25572;-50
2023/12/08 03:01:22;;;;;;;44.77;22.15;;;;;;;-3.73;91.48;100899.56;1727157;83;26639;-50
2023/12/08 03:03:49;;;;;;;45.83;22.62;;;;;;;-3.73;91.29;100894.27;1730332;82;25399;-50
2023/12/08 03:06:15;;;;;;;48.13;23.40;;;;;;;-3.74;91.27;100899.27;1727218;82;27314;-52
2023/12/08 03:08:43;;;;;;;52.58;24.18;;;;;;;-3.73;91.31;100894.27;1730208;82;26128;-50
2023/12/08 03:11:10;;;;;;;44.60;22.00;;;;;;;-3.70;91.46;100896.52;1727208;83;25683;-52
2023/12/08 03:13:37;;;;;;;49.53;23.20;;;;;;;-3.67;91.25;100901.94;1709412;82;25675;-51
2023/12/08 03:16:06;;;;;;;48.17;22.62;;;;;;;-3.71;90.91;100899.36;1727204;83;25445;-51
2023/12/08 03:18:33;;;;;;;47.75;22.95;;;;;;;-3.71;91.00;100897.56;1696707;83;32978;-51
2023/12/08 03:21:00;;;;;;;47.48;22.30;;;;;;;-3.69;91.07;100891.55;1730214;82;25592;-50
2023/12/08 03:23:27;;;;;;;44.85;21.57;;;;;;;-3.69;91.00;100885.46;1727186;83;25559;-50
2023/12/08 03:25:53;;;;;;;49.83;23.75;;;;;;;-3.68;91.02;100902.94;1696556;84;25747;-50
2023/12/08 03:28:20;;;;;;;46.02;22.60;;;;;;;-3.68;90.83;100909.55;1730352;82;25634;-50
2023/12/08 03:30:48;;;;;;;44.08;21.35;;;;;;;-3.69;90.84;100919.84;1727185;83;27792;-51
2023/12/08 03:33:15;;;;;;;48.60;21.73;;;;;;;-3.69;90.79;100915.35;1730212;82;25624;-50
2023/12/08 03:35:42;;;;;;;49.05;22.77;;;;;;;-3.70;90.73;100921.64;1727080;82;25938;-52
2023/12/08 03:38:10;;;;;;;50.08;22.75;;;;;;;-3.69;90.83;100929.89;1696567;84;25659;-50
2023/12/08 03:40:37;;;;;;;42.05;21.82;;;;;;;-3.68;90.76;100946.05;1730322;82;25617;-51
2023/12/08 03:43:04;;;;;;;44.08;21.70;;;;;;;-3.68;90.83;100948.70;1727177;82;28357;-50
2023/12/08 03:45:31;;;;;;;46.42;21.82;;;;;;;-3.67;90.78;100945.05;1696505;83;25635;-51
2023/12/08 03:47:58;;;;;;;47.67;23.00;;;;;;;-3.66;90.71;100951.14;1723190;83;25701;-51
2023/12/08 03:50:25;;;;;;;47.98;23.12;;;;;;;-3.70;90.36;100949.92;1727104;83;25986;-51
2023/12/08 03:52:54;;;;;;;50.98;23.50;;;;;;;-3.71;90.47;100942.99;1696624;84;25398;-50
2023/12/08 03:55:21;;;;;;;51.63;22.20;;;;;;;-3.72;90.49;100936.89;1727029;83;27297;-51
2023/12/08 03:57:50;;;;;;;49.00;22.77;;;;;;;-3.72;90.52;100935.58;1709210;82;25418;-53
2023/12/08 04:00:18;;;;;;;51.28;23.32;;;;;;;-3.72;90.62;100938.22;1727194;82;25425;-54
2023/12/08 04:02:45;;;;;;;54.13;23.62;;;;;;;-3.74;90.43;100928.87;1684590;84;25697;-54
2023/12/08 04:05:12;;;;;;;49.10;23.30;;;;;;;-3.73;90.53;100927.84;1730303;82;25609;-54
2023/12/08 04:07:38;;;;;;;56.13;23.57;;;;;;;-3.72;90.65;100933.45;1727179;83;27320;-54
2023/12/08 04:10:07;;;;;;;53.78;23.55;;;;;;;-3.71;90.83;100927.12;1696490;83;26023;-53
2023/12/08 04:12:34;;;;;;;52.33;23.47;;;;;;;-3.69;90.80;100923.80;1730321;82;25570;-53
2023/12/08 04:15:03;;;;;;;49.35;22.70;;;;;;;-3.69;90.69;100925.13;1727184;83;26328;-53
2023/12/08 04:17:29;;;;;;;52.25;23.98;;;;;;;-3.71;90.54;100918.71;1696568;83;25423;-50
2023/12/08 04:19:56;;;;;;;48.65;22.65;;;;;;;-3.72;90.44;100914.94;1730358;82;27925;-52
2023/12/08 04:22:23;;;;;;;54.25;24.20;;;;;;;-3.75;90.34;100914.81;1727084;83;25692;-51
2023/12/08 04:24:50;;;;;;;51.68;23.07;;;;;;;-3.76;90.49;100914.01;1696587;83;25659;-50
2023/12/08 04:27:16;;;;;;;51.55;22.60;;;;;;;-3.76;90.42;100917.98;1730241;82;25599;-53
2023/12/08 04:29:44;;;;;;;55.08;23.25;;;;;;;-3.76;90.48;100915.33;1727207;82;25651;-51
2023/12/08 04:32:10;;;;;;;54.13;23.83;;;;;;;-3.77;90.45;100917.66;1730262;82;28071;-51
2023/12/08 04:34:37;;;;;;;53.40;24.32;;;;;;;-3.79;90.47;100914.92;1727106;82;25546;-50
2023/12/08 04:37:04;;;;;;;57.83;25.27;;;;;;;-3.80;90.48;100918.08;1692343;84;25447;-50
2023/12/08 04:39:31;;;;;;;50.78;23.45;;;;;;;-3.77;90.55;100912.88;1706078;84;25627;-51
2023/12/08 04:41:58;;;;;;;48.33;21.65;;;;;;;-3.80;90.44;100912.79;1688597;85;25473;-50
2023/12/08 04:44:25;;;;;;;57.80;24.63;;;;;;;-3.79;90.57;100908.31;1688567;85;28340;-52
2023/12/08 04:46:53;;;;;;;54.88;24.75;;;;;;;-3.80;90.48;100907.50;1706018;84;25398;-53
2023/12/08 04:49:21;;;;;;;54.38;24.10;;;;;;;-3.81;90.43;100906.38;1724049;82;25612;-54
2023/12/08 04:51:48;;;;;;;51.48;23.80;;;;;;;-3.83;90.36;100905.25;1723995;83;25621;-52
2023/12/08 04:54:17;;;;;;;52.40;22.85;;;;;;;-3.85;90.40;100894.55;1718909;83;25555;-52
2023/12/08 04:56:44;;;;;;;57.78;24.70;;;;;;;-3.85;90.42;100900.64;1688511;85;27975;-53
2023/12/08 04:59:12;;;;;;;50.50;24.43;;;;;;;-3.87;90.45;100891.30;1706025;84;25681;-51
2023/12/08 05:01:39;;;;;;;55.35;23.25;;;;;;;-3.88;90.48;100900.23;1688547;85;25606;-51
2023/12/08 05:04:07;;;;;;;56.73;23.10;;;;;;;-3.90;90.52;100897.78;1706084;84;25498;-51
2023/12/08 05:06:36;;;;;;;55.65;25.10;;;;;;;-3.89;90.59;100895.97;1688595;85;25476;-50
2023/12/08 05:09:04;;;;;;;;;;;;;;;-3.87;90.71;100901.87;1708640;84;28073;-53
2023/12/08 05:11:31;;;;;;;64.27;25.65;;;;;;;-3.87;90.68;100911.93;1723964;83;25857;-52
2023/12/08 05:13:58;;;;;;;56.45;24.70;;;;;;;-3.89;90.66;100899.94;1718979;83;25600;-52
2023/12/08 05:16:25;;;;;;;55.83;25.15;;;;;;;-3.87;90.68;100899.23;1706250;84;26224;-51
2023/12/08 05:18:52;;;;;;;50.15;24.72;;;;;;;-3.88;90.70;100899.74;1688745;85;25428;-53
2023/12/08 05:21:20;;;;;;;53.38;25.05;;;;;;;-3.90;90.56;100899.10;1729364;83;28008;-50
2023/12/08 05:23:49;;;;;;;66.20;25.92;;;;;;;-3.90;90.71;100893.81;1749827;81;25559;-51
2023/12/08 05:26:16;;;;;;;65.57;25.68;;;;;;;-3.87;90.87;100893.94;1749906;82;25607;-50
2023/12/08 05:28:44;;;;;;;61.85;26.12;;;;;;;-3.87;90.68;100896.06;1749892;81;26626;-52
2023/12/08 05:31:11;;;;;;;55.30;24.45;;;;;;;-3.90;90.63;100891.17;1760403;81;25439;-51
2023/12/08 05:33:38;;;;;;;58.73;26.17;;;;;;;-3.91;90.60;100886.11;1749902;82;28253;-50
2023/12/08 05:36:07;;;;;;;57.45;25.50;;;;;;;-3.90;90.60;100894.33;1749881;82;25975;-51
2023/12/08 05:38:35;;;;;;;61.55;26.73;;;;;;;-3.93;90.60;100890.27;1744938;80;25489;-50
2023/12/08 05:41:04;;;;;;;59.85;25.23;;;;;;;-3.91;90.54;100900.65;1744556;82;26187;-49
2023/12/08 05:43:32;;;;;;;62.78;25.75;;;;;;;-3.94;90.59;100900.01;1744736;82;25405;-52
2023/12/08 05:45:59;;;;;;;63.70;27.77;;;;;;;-3.91;90.67;100894.05;1744799;82;28512;-49
2023/12/08 05:48:28;;;;;;;59.73;26.55;;;;;;;-3.92;90.59;100905.62;1744493;82;25815;-51
2023/12/08 05:50:55;;;;;;;44.47;19.33;;;;;;;-3.91;90.67;100899.33;1744800;82;25562;-50
2023/12/08 05:53:23;;;;;;;60.95;25.37;;;;;;;-3.89;90.72;100902.58;1744551;82;26350;-51
2023/12/08 05:55:50;;;;;;;62.95;26.57;;;;;;;-3.92;90.51;100891.88;1744585;82;25739;-51
2023/12/08 05:58:18;;;;;;;56.00;25.43;;;;;;;-3.90;90.66;100888.53;1744508;82;28168;-52
2023/12/08 06:00:45;;;;;;;65.83;27.75;;;;;;;-3.88;90.76;100886.53;1744463;82;25424;-51
2023/12/08 06:03:13;;;;;;;64.50;26.80;;;;;;;-3.87;90.67;100889.97;1744580;82;25391;-51
2023/12/08 06:05:41;;;;;;;62.27;25.17;;;;;;;-3.88;90.55;100884.37;1744544;82;25962;-50
2023/12/08 06:08:09;;;;;;;56.13;25.27;;;;;;;-3.89;90.52;100885.40;1744587;82;25593;-51
2023/12/08 06:10:37;;;;;;;63.60;25.77;;;;;;;-3.92;90.51;100880.50;1744550;82;27352;-50
2023/12/08 06:13:04;;;;;;;57.25;25.60;;;;;;;-3.92;90.46;100884.47;1744475;82;25548;-55
2023/12/08 06:15:31;;;;;;;56.68;23.90;;;;;;;-3.92;90.48;100884.47;1744548;82;25545;-54
2023/12/08 06:17:58;;;;;;;61.13;24.90;;;;;;;-3.94;90.53;100885.47;1744499;82;25990;-55
2023/12/08 06:20:26;;;;;;;57.80;25.55;;;;;;;-3.94;90.58;100882.83;1744609;82;25663;-56
2023/12/08 06:22:53;;;;;;;55.25;24.18;;;;;;;-3.94;90.59;100878.86;1744538;82;27911;-56
2023/12/08 06:25:19;;;;;;;60.83;26.15;;;;;;;-3.94;90.63;100884.15;1744440;82;25510;-54
2023/12/08 06:27:46;;;;;;;66.28;26.87;;;;;;;-3.96;90.50;100880.09;1743914;82;25616;-54
2023/12/08 06:30:15;;;;;;;66.20;26.65;;;;;;;-3.96;90.45;100888.02;1744567;82;25597;-55
2023/12/08 06:32:41;;;;;;;60.12;26.97;;;;;;;-3.99;90.39;100881.28;1744683;82;25614;-55
2023/12/08 06:35:08;;;;;;;62.45;26.95;;;;;;;-4.00;90.52;100886.28;1744553;82;27765;-52
2023/12/08 06:37:36;;;;;;;62.98;25.62;;;;;;;-3.98;90.55;100884.77;1744344;80;25593;-53
2023/12/08 06:40:06;;;;;;;60.33;25.17;;;;;;;-3.98;90.63;100885.57;1744515;82;25616;-52
2023/12/08 06:42:33;;;;;;;63.52;23.65;;;;;;;-3.98;90.60;100886.89;1744526;82;25612;-52
2023/12/08 06:45:02;;;;;;;59.05;24.40;;;;;;;-3.99;90.59;100883.12;1744562;82;25556;-55
2023/12/08 06:47:29;;;;;;;59.75;24.98;;;;;;;-3.97;90.77;100879.77;1744688;82;27488;-52
2023/12/08 06:49:56;;;;;;;59.03;25.35;;;;;;;-3.99;90.55;100879.16;1744480;82;25588;-53
2023/12/08 06:52:24;;;;;;;54.23;23.22;;;;;;;-3.99;90.60;100877.84;1744576;82;25419;-55
2023/12/08 06:54:52;;;;;;;41.15;17.62;;;;;;;-3.97;90.69;100875.80;1744751;82;26589;-53
2023/12/08 06:57:21;;;;;;;57.95;24.02;;;;;;;-3.97;90.73;100862.10;1744493;82;25592;-52
2023/12/08 06:59:48;;;;;;;54.77;24.70;;;;;;;-3.96;90.68;100868.20;1744608;82;27317;-53
2023/12/08 07:02:15;;;;;;;53.78;23.80;;;;;;;-3.95;90.72;100868.48;1744375;82;25559;-54
2023/12/08 07:04:43;;;;;;;55.35;23.62;;;;;;;-3.96;90.63;100869.52;1744514;82;25608;-54
2023/12/08 07:07:11;;;;;;;59.53;26.27;;;;;;;-3.98;90.57;100867.07;1744492;82;26182;-52
2023/12/08 07:09:38;;;;;;;55.88;25.17;;;;;;;-3.98;90.58;100866.27;1744625;82;25406;-52
2023/12/08 07:12:07;;;;;;;60.20;25.82;;;;;;;-3.96;90.70;100859.75;1744518;82;27684;-52
2023/12/08 07:14:33;;;;;;;55.38;25.60;;;;;;;-3.96;90.71;100867.68;1744647;82;25539;-56
2023/12/08 07:17:00;;;;;;;57.93;24.95;;;;;;;-3.97;90.62;100859.46;1744514;82;25418;-52
2023/12/08 07:19:26;;;;;;;59.88;26.17;;;;;;;-3.97;90.64;100858.14;1744464;82;26059;-51
2023/12/08 07:21:53;;;;;;;62.83;25.82;;;;;;;-3.96;90.59;100857.11;1712914;82;25605;-54
2023/12/08 07:24:19;;;;;;;55.83;24.77;;;;;;;-3.95;90.68;100855.27;1744523;82;27657;-55
2023/12/08 07:26:46;;;;;;;61.85;25.85;;;;;;;-3.95;90.63;100862.72;1744443;82;25596;-55
2023/12/08 07:29:13;;;;;;;62.58;24.52;;;;;;;-3.94;90.59;100856.91;1744529;82;25376;-52
2023/12/08 07:31:39;;;;;;;59.77;25.08;;;;;;;-3.95;90.61;100860.07;1744500;82;25624;-52
2023/12/08 07:34:05;;;;;;;54.88;24.98;;;;;;;-3.92;90.72;100865.45;1744533;82;25539;-52
2023/12/08 07:36:32;;;;;;;58.42;25.50;;;;;;;-3.89;90.84;100868.22;1744528;82;27328;-52
2023/12/08 07:38:59;;;;;;;56.35;24.10;;;;;;;-3.87;90.86;100868.31;1775749;80;25685;-51
2023/12/08 07:41:26;;;;;;;66.60;26.73;;;;;;;-3.85;90.69;100871.56;1729531;82;25580;-54
2023/12/08 07:43:54;;;;;;;58.48;24.75;;;;;;;-3.85;90.43;100874.20;1722214;83;26617;-51
2023/12/08 07:46:27;;;;;;;62.05;26.33;;;;;;;-3.89;90.30;100871.67;1698892;84;25607;-52
2023/12/08 07:48:51;;;;;;;63.08;26.07;;;;;;;-3.89;90.56;100866.38;1728553;83;27233;-54
2023/12/08 07:51:18;;;;;;;59.08;24.90;;;;;;;-3.86;90.60;100881.05;1722205;83;25621;-54
2023/12/08 07:53:45;;;;;;;55.52;26.27;;;;;;;-3.83;90.76;100881.45;1697932;84;25437;-53
2023/12/08 07:56:13;;;;;;;52.58;24.20;;;;;;;-3.81;90.62;100883.39;1697367;83;25954;-56
2023/12/08 07:58:39;;;;;;;58.00;25.17;;;;;;;-3.76;90.86;100884.13;1720764;83;25705;-52
2023/12/08 08:01:06;;;;;;;62.62;27.93;;;;;;;-3.75;90.70;100881.77;1728084;83;27296;-56
2023/12/08 08:03:33;;;;;;;56.15;24.43;;;;;;;-3.71;90.74;100879.05;1720726;83;26024;-53
2023/12/08 08:05:59;;;;;;;65.45;26.60;;;;;;;-3.70;90.52;100880.66;1728159;82;25627;-52
2023/12/08 08:08:26;;;;;;;63.38;26.73;;;;;;;-3.70;90.45;100886.47;1728678;83;25690;-52
2023/12/08 08:10:53;;;;;;;58.73;26.17;;;;;;;-3.69;90.47;100895.52;1690262;83;25557;-53
2023/12/08 08:13:20;;;;;;;61.48;26.33;;;;;;;-3.65;90.67;100894.09;1698825;84;27336;-52
2023/12/08 08:15:46;;;;;;;57.73;25.85;;;;;;;-3.62;90.65;100894.22;1698746;83;25617;-52
2023/12/08 08:18:13;;;;;;;64.97;27.87;;;;;;;-3.60;90.64;100888.22;1722220;83;25448;-53
2023/12/08 08:20:40;;;;;;;64.60;25.65;;;;;;;-3.54;90.58;100891.39;1729474;82;26037;-54
2023/12/08 08:23:07;;;;;;;64.80;26.57;;;;;;;-3.53;90.49;100896.16;1722269;83;25625;-54
2023/12/08 08:25:34;;;;;;;59.42;25.88;;;;;;;-3.55;90.12;100883.14;1729512;82;27820;-55
2023/12/08 08:28:00;;;;;;;56.23;25.80;;;;;;;-3.52;90.26;100886.70;1698742;83;26163;-56
2023/12/08 08:30:27;;;;;;;61.05;26.95;;;;;;;-3.49;90.36;100886.80;1722250;83;25392;-56
2023/12/08 08:32:54;;;;;;;58.98;24.57;;;;;;;-3.47;90.31;100880.83;1729492;83;25631;-55
2023/12/08 08:35:21;;;;;;;58.87;26.45;;;;;;;-3.43;90.24;100887.33;1722258;83;25578;-55
2023/12/08 08:37:48;;;;;;;56.53;24.90;;;;;;;-3.45;90.14;100879.59;1727231;82;27330;-54
2023/12/08 08:40:16;;;;;;;61.35;26.20;;;;;;;-3.41;90.25;100889.26;1688554;85;25646;-55
2023/12/08 08:42:42;;;;;;;68.12;28.42;;;;;;;-3.39;90.01;100895.16;1706127;84;25607;-54
2023/12/08 08:45:16;;;;;;;68.62;27.80;;;;;;;-3.37;90.01;100909.02;1688537;85;26015;-54
2023/12/08 08:47:45;;;;;;;71.22;28.95;;;;;;;-3.38;89.80;100895.47;1688617;85;25646;-55
2023/12/08 08:50:11;;;;;;;65.97;26.90;;;;;;;-3.34;89.95;100898.53;1706654;84;27330;-53
2023/12/08 08:52:39;;;;;;;60.55;26.82;;;;;;;-3.33;89.92;100893.04;1725534;83;25638;-51
2023/12/08 08:55:10;;;;;;;61.95;27.27;;;;;;;-3.33;89.65;100898.33;1725094;82;25445;-53
2023/12/08 08:57:37;;;;;;;67.47;28.60;;;;;;;-3.32;89.62;100893.36;1718855;83;25704;-53
2023/12/08 09:00:11;;;;;;;68.90;27.75;;;;;;;-3.30;89.78;100891.80;1688538;84;25412;-54
2023/12/08 09:02:36;;;;;;;67.27;25.77;;;;;;;-3.25;90.05;100886.72;1705304;84;28027;-54
2023/12/08 09:05:04;;;;;;;60.08;25.50;;;;;;;-3.23;89.78;100890.00;1723928;83;25391;-56
2023/12/08 09:07:32;;;;;;;60.43;25.75;;;;;;;-3.25;89.56;100886.72;1724020;83;25600;-52
2023/12/08 09:09:59;;;;;;;67.90;28.77;;;;;;;-3.24;89.58;100893.65;1718824;83;26276;-56
2023/12/08 09:12:26;;;;;;;57.35;26.62;;;;;;;-3.23;89.32;100892.64;1688570;84;25588;-52
2023/12/08 09:14:53;;;;;;;60.90;25.97;;;;;;;-3.23;89.51;100886.03;1706087;84;28335;-52
2023/12/08 09:17:21;;;;;;;66.25;27.67;;;;;;;-3.22;89.34;100891.13;1688421;84;26000;-53
2023/12/08 09:19:49;;;;;;;61.40;26.82;;;;;;;-3.22;89.41;100887.64;1706092;84;25424;-55
2023/12/08 09:22:15;;;;;;;63.85;28.85;;;;;;;-3.21;89.44;100891.41;1688503;84;26281;-51
2023/12/08 09:24:43;;;;;;;67.92;28.87;;;;;;;-3.18;89.51;100887.56;1688597;85;25236;-52
2023/12/08 09:27:11;;;;;;;71.77;28.90;;;;;;;-3.16;89.35;100881.55;1718590;83;27253;-56
2023/12/08 09:29:38;;;;;;;69.55;28.83;;;;;;;-3.19;89.05;100872.69;1718435;83;25970;-52
2023/12/08 09:32:07;;;;;;;66.33;28.00;;;;;;;-3.19;89.02;100870.05;1718637;83;25684;-57
2023/12/08 09:34:34;;;;;;;70.25;29.05;;;;;;;-3.19;89.22;100869.52;1718669;83;25679;-57
2023/12/08 09:37:03;;;;;;;70.60;27.98;;;;;;;-3.16;89.41;100867.52;1718618;83;25630;-53
2023/12/08 09:39:32;;;;;;;71.20;29.02;;;;;;;-3.10;89.55;100867.52;1718887;83;28139;-56
2023/12/08 09:42:05;;;;;;;67.70;29.27;;;;;;;-3.11;89.27;100868.52;1719185;83;25656;-52
2023/12/08 09:44:34;;;;;;;70.47;26.60;;;;;;;-3.08;89.26;100861.50;1719137;82;25214;-54
2023/12/08 09:47:08;;;;;;;68.17;28.52;;;;;;;-3.04;89.55;100857.41;1760482;81;26248;-52
2023/12/08 09:49:43;;;;;;;71.70;27.58;;;;;;;-2.99;89.55;100852.03;1754598;81;25541;-52
2023/12/08 09:52:13;;;;;;;65.67;30.43;;;;;;;-2.94;89.74;100840.31;1726655;81;27329;-54
2023/12/08 09:54:43;;;;;;;74.20;27.80;;;;;;;-2.91;89.44;100835.42;1760537;81;25382;-53
2023/12/08 09:57:12;;;;;;;70.52;29.55;;;;;;;-2.91;89.05;100841.20;1760441;81;25183;-53
2023/12/08 09:59:42;;;;;;;72.03;29.23;;;;;;;-2.88;89.29;100838.15;1760645;81;25631;-55
2023/12/08 10:02:08;;;;;;;65.50;27.22;;;;;;;-2.85;88.88;100837.74;1760824;81;25593;-55
2023/12/08 10:04:37;;;;;;;60.55;26.35;;;;;;;-2.89;88.79;100824.63;1760610;81;28383;-55
2023/12/08 10:07:08;;;;;;;63.73;27.13;;;;;;;-2.87;88.86;100831.84;1760432;80;25380;-54
2023/12/08 10:09:37;;;;;;;59.83;26.35;;;;;;;-2.88;88.72;100836.34;1760635;81;25486;-53
2023/12/08 10:12:07;;;;;;;63.90;28.02;;;;;;;-2.89;88.66;100840.52;1760808;81;25969;-55
2023/12/08 10:14:33;;;;;;;;;;;;;;;-2.84;89.09;100844.67;1763255;81;25552;-56
2023/12/08 10:17:02;;;;;;;61.80;25.97;;;;;;;-2.81;89.09;100850.86;1760587;81;28070;-55
2023/12/08 10:19:29;;;;;;;66.02;28.47;;;;;;;-2.76;89.34;100847.08;1726462;81;25676;-52
2023/12/08 10:22:02;;;;;;;77.15;30.10;;;;;;;-2.76;88.82;100834.36;1760556;81;25591;-54
2023/12/08 10:24:31;;;;;;;66.37;28.98;;;;;;;-2.75;88.73;100838.13;1760513;81;27761;-56
2023/12/08 10:27:00;;;;;;;71.33;28.62;;;;;;;-2.77;88.43;100843.34;1760766;81;25575;-53
2023/12/08 10:29:34;;;;;;;71.55;29.65;;;;;;;-2.76;88.43;100846.28;1760749;80;27201;-56
2023/12/08 10:32:07;;;;;;;64.00;28.00;;;;;;;-2.73;88.62;100849.84;1760484;80;25948;-55
2023/12/08 10:34:39;;;;;;;71.25;28.62;;;;;;;-2.77;88.50;100845.47;1760597;81;25595;-53
2023/12/08 10:37:06;;;;;;;72.60;28.15;;;;;;;-2.74;88.68;100849.04;1760588;81;25645;-53
2023/12/08 10:39:36;;;;;;;77.32;29.20;;;;;;;-2.71;88.84;100851.25;1749980;80;25438;-51
2023/12/08 10:42:05;;;;;;;68.30;27.87;;;;;;;-2.66;88.89;100847.98;1744551;82;27211;-54
2023/12/08 10:44:32;;;;;;;70.00;29.15;;;;;;;-2.69;88.24;100837.31;1744581;82;25255;-51
2023/12/08 10:47:02;;;;;;;66.02;27.05;;;;;;;-2.68;88.18;100836.79;1744532;82;25529;-55
2023/12/08 10:49:32;;;;;;;68.47;28.32;;;;;;;-2.68;88.42;100824.35;1744659;82;25689;-55
2023/12/08 10:52:01;;;;;;;77.65;29.10;;;;;;;-2.67;88.39;100816.72;1744719;82;25410;-53
2023/12/08 10:54:29;;;;;;;68.92;29.45;;;;;;;-2.66;88.33;100816.20;1744707;82;27700;-52
2023/12/08 10:56:56;;;;;;;80.30;30.47;;;;;;;-2.61;89.05;100812.42;1744722;82;25552;-57
2023/12/08 10:59:29;;;;;;;66.80;28.12;;;;;;;-2.54;88.74;100813.20;1744530;81;25612;-55
2023/12/08 11:02:02;;;;;;;68.33;29.32;;;;;;;-2.55;88.19;100798.87;1744555;82;25614;-54
2023/12/08 11:04:32;;;;;;;70.65;30.50;;;;;;;-2.55;88.29;100790.41;1744569;82;25491;-55
2023/12/08 11:07:12;;;;;;;78.65;31.20;;;;;;;-2.57;87.78;100778.38;1744678;82;28104;-52
2023/12/08 11:09:41;;;;;;;72.78;30.20;;;;;;;-2.58;88.00;100782.06;1742277;82;25663;-51
2023/12/08 11:12:15;;;;;;;77.20;31.60;;;;;;;-2.61;87.79;100776.66;1744545;82;25558;-51